Time;durP1;ratioP1;P1;durP2;ratioP2;P2;SDS_P1;SDS_P2;PMS_P1;PMS_P2;Temp;Humidity;BMP_temperature;BMP_pressure;BME280_temperature;BME280_humidity;BME280_pressure;Samples;Min_cycle;Max_cycle;Signal;HPM_P1;HPM_P2
2022/04/01 00:00:10;;;;;;;15.40;11.27;;;;;;;;;;4993948;28;20202;-85
2022/04/01 00:03:17;;;;;;;17.63;12.13;;;;;;;;;;5022807;28;20178;-84
2022/04/01 00:06:21;;;;;;;20.30;12.53;;;;;;;;;;5016306;28;20201;-84
2022/04/01 00:09:25;;;;;;;18.00;12.47;;;;;;;;;;5005933;28;20648;-84
2022/04/01 00:12:29;;;;;;;17.43;12.53;;;;;;;;;;5017970;28;20186;-85
2022/04/01 00:15:34;;;;;;;17.20;12.27;;;;;;;;;;5017496;28;20217;-84
2022/04/01 00:18:38;;;;;;;17.87;12.47;;;;;;;;;;5027001;28;20249;-84
2022/04/01 00:21:42;;;;;;;18.30;12.70;;;;;;;;;;5004530;28;20221;-84
2022/04/01 00:24:46;;;;;;;17.10;11.90;;;;;;;;;;5015510;28;20217;-85
2022/04/01 00:27:51;;;;;;;15.17;11.40;;;;;;;;;;5016288;28;20197;-84
2022/04/01 00:30:55;;;;;;;15.87;11.30;;;;;;;;;;5026836;28;20201;-85
2022/04/01 00:34:15;;;;;;;16.23;11.77;;;;;;;;;;5006194;28;20197;-85
2022/04/01 00:37:19;;;;;;;15.53;11.10;;;;;;;;;;5003003;28;20186;-85
2022/04/01 00:40:23;;;;;;;16.10;11.10;;;;;;;;;;5002673;28;20182;-84
2022/04/01 00:43:32;;;;;;;15.83;10.97;;;;;;;;;;5014044;28;20558;-85
2022/04/01 00:46:46;;;;;;;14.37;10.90;;;;;;;;;;5003813;28;20198;-85
2022/04/01 00:49:50;;;;;;;14.33;10.70;;;;;;;;;;5014242;28;20189;-85
2022/04/01 00:52:54;;;;;;;16.80;11.20;;;;;;;;;;5004647;28;20181;-84
2022/04/01 00:55:58;;;;;;;15.50;11.63;;;;;;;;;;4994555;28;20580;-84
2022/04/01 00:59:03;;;;;;;15.90;12.30;;;;;;;;;;5015828;28;20173;-84
2022/04/01 01:02:08;;;;;;;13.90;10.47;;;;;;;;;;4991778;28;20213;-84
2022/04/01 01:05:13;;;;;;;13.07;10.17;;;;;;;;;;4992383;28;20220;-84
2022/04/01 01:08:17;;;;;;;13.40;10.57;;;;;;;;;;5002203;28;20185;-84
2022/04/01 01:11:21;;;;;;;13.73;10.63;;;;;;;;;;5002182;28;20648;-84
2022/04/01 01:14:30;;;;;;;13.30;9.83;;;;;;;;;;5013996;28;20668;-84
2022/04/01 01:17:34;;;;;;;13.90;11.13;;;;;;;;;;4991986;28;20185;-84
2022/04/01 01:20:38;;;;;;;12.23;9.97;;;;;;;;;;5014246;28;20537;-85
2022/04/01 01:23:43;;;;;;;16.30;11.20;;;;;;;;;;5013479;28;20174;-84
2022/04/01 01:26:52;;;;;;;13.67;10.47;;;;;;;;;;5013514;28;20182;-85
2022/04/01 01:29:55;;;;;;;14.37;10.73;;;;;;;;;;4991897;28;20178;-84
2022/04/01 01:33:01;;;;;;;14.40;10.93;;;;;;;;;;4991529;28;20177;-85
2022/04/01 01:36:07;;;;;;;15.70;12.00;;;;;;;;;;5013081;28;20225;-85
2022/04/01 01:39:11;;;;;;;16.33;12.57;;;;;;;;;;5002494;28;20185;-84
2022/04/01 01:42:15;;;;;;;15.60;11.37;;;;;;;;;;4991872;28;20205;-84
2022/04/01 01:45:20;;;;;;;13.97;11.50;;;;;;;;;;5001944;28;20232;-84
2022/04/01 01:48:23;;;;;;;16.70;11.67;;;;;;;;;;5002381;28;20189;-84
2022/04/01 01:54:52;;;;;;;16.23;11.07;;;;;;;;;;5017678;28;20217;-84
2022/04/01 01:57:58;;;;;;;15.50;11.47;;;;;;;;;;5018747;28;20173;-84
2022/04/01 02:01:02;;;;;;;16.17;11.70;;;;;;;;;;5018492;28;20178;-84
2022/04/01 02:04:07;;;;;;;16.07;11.53;;;;;;;;;;5017201;28;20170;-84
2022/04/01 02:07:12;;;;;;;13.70;10.37;;;;;;;;;;5005892;28;20178;-84
2022/04/01 02:10:16;;;;;;;16.10;11.03;;;;;;;;;;5017291;28;20177;-84
2022/04/01 02:13:20;;;;;;;15.43;11.87;;;;;;;;;;5005400;28;20182;-84
2022/04/01 02:16:24;;;;;;;17.00;12.43;;;;;;;;;;5016645;28;20185;-84
2022/04/01 02:19:30;;;;;;;16.23;11.67;;;;;;;;;;4994014;28;20178;-84
2022/04/01 02:22:36;;;;;;;14.17;11.17;;;;;;;;;;5016353;28;20213;-84
2022/04/01 02:25:42;;;;;;;18.60;12.10;;;;;;;;;;5016409;28;20217;-84
2022/04/01 02:28:46;;;;;;;16.40;11.83;;;;;;;;;;5004815;28;20182;-84
2022/04/01 02:31:51;;;;;;;16.50;11.70;;;;;;;;;;5016910;28;20174;-84
2022/04/01 02:35:24;;;;;;;14.10;9.80;;;;;;;;;;5016046;28;20221;-84
2022/04/01 02:38:30;;;;;;;13.63;10.53;;;;;;;;;;5016311;28;20174;-85
2022/04/01 02:41:35;;;;;;;15.67;11.23;;;;;;;;;;5004320;28;20201;-85
2022/04/01 02:44:39;;;;;;;18.53;12.10;;;;;;;;;;5004408;28;20233;-85
2022/04/01 02:47:43;;;;;;;17.07;11.77;;;;;;;;;;4993774;28;20186;-84
2022/04/01 02:50:48;;;;;;;16.33;11.90;;;;;;;;;;5015879;28;20202;-84
2022/04/01 02:53:53;;;;;;;16.37;12.07;;;;;;;;;;5012839;28;20181;-84
2022/04/01 02:56:57;;;;;;;17.60;12.27;;;;;;;;;;5036223;28;20165;-85
2022/04/01 03:00:09;;;;;;;16.63;12.63;;;;;;;;;;4994094;28;20177;-85
2022/04/01 03:03:13;;;;;;;19.60;13.47;;;;;;;;;;5004555;28;20214;-85
2022/04/01 03:06:18;;;;;;;16.13;12.40;;;;;;;;;;5004219;28;20181;-85
2022/04/01 03:09:25;;;;;;;20.23;13.50;;;;;;;;;;5004370;28;20182;-85
2022/04/01 03:12:37;;;;;;;20.30;13.87;;;;;;;;;;5010576;28;20174;-85
2022/04/01 03:16:12;;;;;;;18.90;13.13;;;;;;;;;;5024257;28;20217;-84
2022/04/01 03:19:28;;;;;;;17.83;12.77;;;;;;;;;;4996867;28;20189;-85
2022/04/01 03:22:34;;;;;;;18.13;12.60;;;;;;;;;;5020798;28;20209;-84
2022/04/01 03:25:38;;;;;;;19.37;13.57;;;;;;;;;;5015142;28;20225;-85
2022/04/01 03:28:52;;;;;;;19.00;13.33;;;;;;;;;;5013934;28;20197;-84
2022/04/01 03:31:58;;;;;;;17.93;12.97;;;;;;;;;;4997348;28;20182;-84
2022/04/01 03:35:03;;;;;;;18.77;13.17;;;;;;;;;;5009614;28;20565;-84
2022/04/01 03:38:10;;;;;;;15.33;11.50;;;;;;;;;;5018039;28;20181;-84
2022/04/01 03:41:17;;;;;;;16.77;11.53;;;;;;;;;;5007109;28;20182;-84
2022/04/01 03:44:24;;;;;;;15.00;11.80;;;;;;;;;;5018355;28;20221;-85
2022/04/01 03:48:03;;;;;;;16.63;11.53;;;;;;;;;;5009174;28;20181;-84
2022/04/01 03:51:09;;;;;;;16.10;12.23;;;;;;;;;;5004700;28;20178;-85
2022/04/01 03:54:19;;;;;;;16.10;11.87;;;;;;;;;;5018210;28;20704;-84
2022/04/01 03:57:41;;;;;;;16.57;12.07;;;;;;;;;;5026620;28;20185;-84
2022/04/01 04:01:04;;;;;;;15.50;11.53;;;;;;;;;;5027239;28;20178;-84
2022/04/01 04:04:10;;;;;;;14.63;11.13;;;;;;;;;;5003789;28;20564;-84
2022/04/01 04:07:14;;;;;;;16.93;11.77;;;;;;;;;;5006437;28;20186;-84
2022/04/01 04:10:27;;;;;;;14.67;11.33;;;;;;;;;;5014852;28;20185;-84
2022/04/01 04:13:59;;;;;;;15.70;12.17;;;;;;;;;;4995766;28;20185;-85
2022/04/01 04:17:10;;;;;;;14.67;11.47;;;;;;;;;;5004030;28;20514;-84
2022/04/01 04:20:34;;;;;;;14.50;11.20;;;;;;;;;;5003201;28;20181;-85
2022/04/01 04:23:54;;;;;;;15.87;11.17;;;;;;;;;;4992066;28;20213;-85
2022/04/01 04:27:10;;;;;;;12.97;10.23;;;;;;;;;;4991704;28;20186;-85
2022/04/01 04:30:15;;;;;;;13.27;10.23;;;;;;;;;;5002906;28;20182;-85
2022/04/01 04:33:45;;;;;;;14.03;10.50;;;;;;;;;;5020150;28;20178;-85
2022/04/01 04:36:56;;;;;;;11.90;9.43;;;;;;;;;;5013736;28;20181;-85
2022/04/01 04:40:01;;;;;;;13.67;10.73;;;;;;;;;;5002702;28;20186;-85
2022/04/01 04:43:06;;;;;;;16.80;13.53;;;;;;;;;;5002340;28;20549;-85
2022/04/01 04:46:13;;;;;;;12.17;9.87;;;;;;;;;;5002233;28;20225;-85
2022/04/01 04:49:18;;;;;;;12.27;9.93;;;;;;;;;;4991301;28;20530;-85
2022/04/01 04:52:32;;;;;;;12.20;8.87;;;;;;;;;;5013407;28;20182;-85
2022/04/01 04:55:40;;;;;;;10.53;8.30;;;;;;;;;;5013393;28;20217;-85
2022/04/01 04:58:44;;;;;;;13.17;9.30;;;;;;;;;;5002238;28;20181;-85
2022/04/01 05:02:07;;;;;;;12.43;9.23;;;;;;;;;;5013259;28;20205;-85
2022/04/01 05:05:31;;;;;;;13.03;10.30;;;;;;;;;;5002240;28;20680;-85
2022/04/01 05:09:25;;;;;;;15.43;11.43;;;;;;;;;;5013437;28;20186;-85
2022/04/01 05:12:59;;;;;;;12.53;9.43;;;;;;;;;;5003297;28;20173;-85
2022/04/01 05:16:57;;;;;;;10.50;7.93;;;;;;;;;;5007251;28;20186;-85
2022/04/01 05:20:17;;;;;;;8.20;6.43;;;;;;;;;;5013360;28;20545;-85
2022/04/01 05:23:56;;;;;;;8.60;6.90;;;;;;;;;;4991455;28;20214;-85
2022/04/01 05:27:03;;;;;;;10.90;8.90;;;;;;;;;;5012767;28;20182;-85
2022/04/01 05:30:38;;;;;;;9.67;7.83;;;;;;;;;;5013399;28;20181;-85
2022/04/01 05:33:57;;;;;;;8.93;7.10;;;;;;;;;;5001886;28;20612;-85
2022/04/01 05:37:02;;;;;;;7.90;6.60;;;;;;;;;;5001712;28;20185;-85
2022/04/01 05:40:08;;;;;;;7.00;6.30;;;;;;;;;;5013031;28;20173;-85
2022/04/01 05:43:17;;;;;;;9.43;7.13;;;;;;;;;;5001673;28;20211;-85
2022/04/01 05:47:00;;;;;;;8.60;6.37;;;;;;;;;;5013538;28;20182;-85
2022/04/01 05:50:06;;;;;;;8.57;7.17;;;;;;;;;;4990739;28;20544;-85
2022/04/01 05:53:14;;;;;;;10.27;7.13;;;;;;;;;;5012856;28;20193;-85
2022/04/01 05:56:27;;;;;;;8.33;7.20;;;;;;;;;;5001559;28;20181;-85
2022/04/01 05:59:33;;;;;;;11.33;7.43;;;;;;;;;;5001568;28;20625;-85
2022/04/01 06:03:06;;;;;;;9.70;7.83;;;;;;;;;;5012936;28;20173;-85
2022/04/01 06:06:17;;;;;;;23.03;16.23;;;;;;;;;;4992383;28;20217;-84
2022/04/01 06:09:39;;;;;;;11.87;9.63;;;;;;;;;;5015298;28;20178;-84
2022/04/01 06:13:17;;;;;;;9.73;7.63;;;;;;;;;;5015818;28;20185;-84
2022/04/01 06:16:44;;;;;;;10.20;8.03;;;;;;;;;;5006135;28;20197;-84
2022/04/01 06:20:07;;;;;;;8.43;7.43;;;;;;;;;;5003989;28;20186;-83
2022/04/01 06:23:20;;;;;;;9.43;7.27;;;;;;;;;;5003498;28;20201;-84
2022/04/01 06:26:27;;;;;;;7.43;6.63;;;;;;;;;;4992102;28;20649;-84
2022/04/01 06:29:40;;;;;;;9.57;7.07;;;;;;;;;;5002378;28;20600;-84
2022/04/01 06:32:55;;;;;;;8.40;7.00;;;;;;;;;;4991361;28;20537;-84
2022/04/01 06:36:13;;;;;;;9.13;6.87;;;;;;;;;;4993909;28;20218;-84
2022/04/01 06:39:25;;;;;;;6.87;6.07;;;;;;;;;;5004536;28;20178;-84
2022/04/01 06:42:31;;;;;;;8.57;6.63;;;;;;;;;;4996295;28;20561;-84
2022/04/01 06:46:07;;;;;;;7.53;6.30;;;;;;;;;;5021681;28;20202;-84
2022/04/01 06:49:16;;;;;;;7.57;6.33;;;;;;;;;;5021685;28;20556;-85
2022/04/01 06:52:56;;;;;;;8.57;6.77;;;;;;;;;;5022458;28;20177;-85
2022/04/01 06:56:26;;;;;;;6.77;5.43;;;;;;;;;;5021389;28;20197;-85
2022/04/01 06:59:30;;;;;;;6.80;5.77;;;;;;;;;;5004471;28;20540;-85
2022/04/01 07:02:35;;;;;;;7.73;6.20;;;;;;;;;;5027262;28;20177;-85
2022/04/01 07:05:39;;;;;;;7.77;5.67;;;;;;;;;;4993055;28;20209;-84
2022/04/01 07:08:43;;;;;;;6.20;5.60;;;;;;;;;;5018919;28;20181;-84
2022/04/01 07:11:47;;;;;;;15.10;10.67;;;;;;;;;;4996650;28;20189;-84
2022/04/01 07:14:51;;;;;;;8.77;7.27;;;;;;;;;;5018712;28;20652;-84
2022/04/01 07:17:55;;;;;;;6.50;5.40;;;;;;;;;;5007301;28;20181;-84
2022/04/01 07:21:00;;;;;;;7.00;5.57;;;;;;;;;;5018270;28;20190;-84
2022/04/01 07:24:05;;;;;;;6.77;6.03;;;;;;;;;;5029412;28;20205;-84
2022/04/01 07:27:11;;;;;;;8.10;6.43;;;;;;;;;;5018390;28;20178;-84
2022/04/01 07:30:15;;;;;;;5.83;5.20;;;;;;;;;;5006807;28;20185;-84
2022/04/01 07:33:19;;;;;;;6.80;5.53;;;;;;;;;;5006590;28;20181;-84
2022/04/01 07:36:23;;;;;;;6.07;5.10;;;;;;;;;;5017327;28;20181;-84
2022/04/01 07:39:28;;;;;;;9.57;6.93;;;;;;;;;;5006434;28;20182;-84
2022/04/01 07:42:32;;;;;;;6.30;5.40;;;;;;;;;;5028334;28;20183;-84
2022/04/01 07:45:37;;;;;;;6.90;5.37;;;;;;;;;;5028005;28;20217;-84
2022/04/01 07:48:41;;;;;;;6.53;5.30;;;;;;;;;;5016983;28;20625;-84
2022/04/01 07:51:46;;;;;;;7.63;5.73;;;;;;;;;;5005376;28;20182;-84
2022/04/01 07:54:51;;;;;;;5.90;4.70;;;;;;;;;;5027706;28;20217;-84
2022/04/01 07:57:56;;;;;;;5.93;5.33;;;;;;;;;;5005302;28;20182;-84
2022/04/01 08:01:00;;;;;;;7.83;5.20;;;;;;;;;;5017089;28;20177;-84
2022/04/01 08:04:04;;;;;;;8.07;6.13;;;;;;;;;;5016526;28;20579;-84
2022/04/01 08:07:08;;;;;;;6.47;5.77;;;;;;;;;;5006308;28;20178;-84
2022/04/01 08:10:13;;;;;;;6.63;5.77;;;;;;;;;;4996019;28;20177;-84
2022/04/01 08:13:17;;;;;;;6.27;5.10;;;;;;;;;;4995279;28;20529;-84
2022/04/01 08:16:22;;;;;;;5.93;5.30;;;;;;;;;;5006092;28;20182;-84
2022/04/01 08:19:26;;;;;;;5.73;5.10;;;;;;;;;;5018811;28;20185;-84
2022/04/01 08:22:30;;;;;;;10.17;7.17;;;;;;;;;;5007591;28;20201;-84
2022/04/01 08:25:35;;;;;;;6.27;4.73;;;;;;;;;;5010328;28;20225;-85
2022/04/01 08:28:39;;;;;;;5.30;4.30;;;;;;;;;;5010091;28;20194;-84
2022/04/01 08:31:43;;;;;;;5.10;4.30;;;;;;;;;;5016941;28;20182;-85
2022/04/01 08:34:47;;;;;;;5.57;4.03;;;;;;;;;;5017832;28;20209;-85
2022/04/01 08:37:54;;;;;;;6.20;4.40;;;;;;;;;;5022009;28;20206;-85
2022/04/01 08:40:59;;;;;;;5.80;5.00;;;;;;;;;;5007464;28;20235;-85
2022/04/01 08:44:03;;;;;;;5.17;4.33;;;;;;;;;;4993163;28;20197;-85
2022/04/01 08:47:11;;;;;;;4.93;4.20;;;;;;;;;;5017455;28;20193;-84
2022/04/01 08:50:15;;;;;;;5.20;4.07;;;;;;;;;;5016951;28;20182;-84
2022/04/01 08:53:20;;;;;;;5.40;4.90;;;;;;;;;;5015934;28;20185;-84
2022/04/01 08:56:24;;;;;;;22.40;11.60;;;;;;;;;;4992917;28;20178;-84
2022/04/01 08:59:29;;;;;;;16.00;11.20;;;;;;;;;;5017151;28;20181;-84
2022/04/01 09:02:33;;;;;;;7.77;5.77;;;;;;;;;;4993505;28;20652;-84
2022/04/01 09:05:42;;;;;;;7.30;5.73;;;;;;;;;;5002748;28;20228;-85
2022/04/01 09:08:47;;;;;;;6.60;5.47;;;;;;;;;;5026173;28;20185;-84
2022/04/01 09:12:08;;;;;;;4.77;4.30;;;;;;;;;;5003959;28;20199;-84
2022/04/01 09:15:12;;;;;;;6.10;5.33;;;;;;;;;;5015501;28;20213;-84
2022/04/01 09:18:40;;;;;;;6.37;5.70;;;;;;;;;;4993183;28;20181;-84
2022/04/01 09:21:47;;;;;;;6.00;5.47;;;;;;;;;;5015208;28;20178;-85
2022/04/01 09:24:59;;;;;;;5.97;5.37;;;;;;;;;;5014015;28;20229;-85
2022/04/01 09:28:03;;;;;;;7.90;5.80;;;;;;;;;;5003987;28;20186;-85
2022/04/01 09:31:13;;;;;;;5.50;4.90;;;;;;;;;;5003554;28;20216;-84
2022/04/01 09:34:17;;;;;;;6.73;4.90;;;;;;;;;;5032288;28;20209;-84
2022/04/01 09:37:21;;;;;;;6.27;5.67;;;;;;;;;;4998490;28;20185;-84
2022/04/01 09:40:26;;;;;;;7.63;6.07;;;;;;;;;;5006542;28;20177;-85
2022/04/01 09:43:36;;;;;;;5.23;4.60;;;;;;;;;;5018500;28;20197;-84
2022/04/01 09:46:53;;;;;;;6.80;6.10;;;;;;;;;;5031348;28;20173;-85
2022/04/01 09:49:57;;;;;;;6.47;4.80;;;;;;;;;;5003500;28;20190;-85
2022/04/01 09:53:11;;;;;;;6.30;5.70;;;;;;;;;;4991855;28;20173;-85
2022/04/01 09:56:15;;;;;;;5.90;5.30;;;;;;;;;;4991790;28;20209;-86
2022/04/01 09:59:20;;;;;;;7.30;5.93;;;;;;;;;;5002882;28;20196;-85
2022/04/01 10:02:24;;;;;;;5.63;4.97;;;;;;;;;;5009071;28;20181;-84
2022/04/01 10:05:28;;;;;;;6.20;5.43;;;;;;;;;;4992698;28;20684;-84
2022/04/01 10:08:34;;;;;;;8.53;6.97;;;;;;;;;;5014832;28;20649;-84
2022/04/01 10:11:41;;;;;;;7.20;5.93;;;;;;;;;;5003087;28;20189;-85
2022/04/01 10:14:46;;;;;;;6.47;5.50;;;;;;;;;;5019437;28;20213;-84
2022/04/01 10:17:53;;;;;;;7.37;5.93;;;;;;;;;;5012864;28;20181;-84
2022/04/01 10:21:00;;;;;;;6.70;6.00;;;;;;;;;;5007917;28;20530;-84
2022/04/01 10:24:14;;;;;;;5.67;4.83;;;;;;;;;;4996661;28;20616;-84
2022/04/01 10:27:25;;;;;;;10.13;7.57;;;;;;;;;;5018603;28;20186;-85
2022/04/01 10:30:31;;;;;;;6.90;5.03;;;;;;;;;;4994909;28;20628;-85
2022/04/01 10:33:36;;;;;;;6.70;5.90;;;;;;;;;;5007071;28;20181;-84
2022/04/01 10:36:42;;;;;;;8.03;6.17;;;;;;;;;;4999825;28;20536;-84
2022/04/01 10:39:49;;;;;;;8.50;5.00;;;;;;;;;;5038428;28;20178;-85
2022/04/01 10:42:54;;;;;;;6.40;5.70;;;;;;;;;;5021141;28;20185;-84
2022/04/01 10:46:15;;;;;;;10.23;8.43;;;;;;;;;;5013482;28;20225;-84
2022/04/01 10:53:36;;;;;;;7.90;5.90;;;;;;;;;;5011432;28;20556;-84
2022/04/01 10:56:41;;;;;;;33.03;21.00;;;;;;;;;;5007524;28;20193;-84
2022/04/01 10:59:50;;;;;;;10.70;9.33;;;;;;;;;;5017291;28;20521;-85
2022/04/01 11:03:21;;;;;;;8.57;7.20;;;;;;;;;;5005437;28;20186;-85
2022/04/01 11:06:27;;;;;;;8.10;5.40;;;;;;;;;;4994083;28;20178;-85
2022/04/01 11:09:45;;;;;;;6.63;5.07;;;;;;;;;;5005228;28;20185;-85
2022/04/01 11:12:50;;;;;;;5.03;4.53;;;;;;;;;;5004701;28;20193;-85
2022/04/01 11:16:12;;;;;;;5.93;5.20;;;;;;;;;;5015765;28;20217;-85
2022/04/01 11:19:17;;;;;;;6.07;4.23;;;;;;;;;;4993803;28;20190;-85
2022/04/01 11:22:36;;;;;;;5.00;4.50;;;;;;;;;;4993449;28;20181;-85
2022/04/01 11:25:42;;;;;;;5.70;4.60;;;;;;;;;;5004010;28;20225;-85
2022/04/01 11:28:47;;;;;;;5.83;4.33;;;;;;;;;;4993332;28;20182;-85
2022/04/01 11:32:02;;;;;;;5.67;4.40;;;;;;;;;;5004789;28;20624;-85
2022/04/01 11:35:08;;;;;;;9.47;5.30;;;;;;;;;;4993309;28;20209;-85
2022/04/01 11:38:15;;;;;;;5.33;4.80;;;;;;;;;;5015661;28;20177;-85
2022/04/01 11:41:19;;;;;;;6.40;5.13;;;;;;;;;;5004491;28;20177;-86
2022/04/01 11:44:23;;;;;;;6.00;5.17;;;;;;;;;;5004218;28;20225;-85
2022/04/01 11:47:37;;;;;;;5.90;4.53;;;;;;;;;;4993111;28;20189;-85
2022/04/01 11:50:43;;;;;;;2.93;2.53;;;;;;;;;;5015758;28;20178;-85
2022/04/01 11:53:56;;;;;;;3.93;1.83;;;;;;;;;;4992545;28;20197;-85
2022/04/01 11:57:00;;;;;;;2.33;1.97;;;;;;;;;;5005347;28;20186;-84
2022/04/01 12:00:12;;;;;;;2.13;1.87;;;;;;;;;;4992897;28;20185;-85
2022/04/01 12:03:20;;;;;;;2.60;1.90;;;;;;;;;;5004010;28;20173;-85
2022/04/01 12:09:47;;;;;;;2.10;1.90;;;;;;;;;;5015573;28;20189;-85
2022/04/01 12:13:00;;;;;;;1.90;1.60;;;;;;;;;;4993012;28;20521;-85
2022/04/01 12:16:04;;;;;;;2.20;2.00;;;;;;;;;;5014935;28;20213;-85
2022/04/01 12:19:20;;;;;;;2.67;2.10;;;;;;;;;;4992695;28;20177;-85
2022/04/01 12:22:24;;;;;;;1.70;1.60;;;;;;;;;;4992918;28;20185;-85
2022/04/01 12:25:30;;;;;;;1.90;1.80;;;;;;;;;;5014757;28;20229;-85
2022/04/01 12:28:39;;;;;;;2.50;1.50;;;;;;;;;;5015776;28;20186;-84
2022/04/01 12:31:49;;;;;;;1.53;1.43;;;;;;;;;;5003876;28;20629;-85
2022/04/01 12:34:54;;;;;;;2.53;1.70;;;;;;;;;;4992256;28;20213;-85
2022/04/01 12:38:13;;;;;;;4.63;3.00;;;;;;;;;;5072589;28;20834;-84
2022/04/01 12:41:18;;;;;;;3.93;3.20;;;;;;;;;;5059229;28;20198;-84
2022/04/01 12:44:28;;;;;;;3.83;3.43;;;;;;;;;;5048542;28;20211;-84
2022/04/01 12:47:35;;;;;;;3.07;2.80;;;;;;;;;;5060073;28;20619;-84
2022/04/01 12:50:39;;;;;;;3.43;3.13;;;;;;;;;;5048533;28;20179;-83
2022/04/01 12:53:58;;;;;;;2.83;2.57;;;;;;;;;;5047873;28;20175;-82
2022/04/01 12:57:10;;;;;;;3.60;3.30;;;;;;;;;;5047448;28;20551;-82
2022/04/01 13:00:15;;;;;;;4.03;3.63;;;;;;;;;;5059135;28;20198;-82
2022/04/01 13:03:23;;;;;;;5.67;4.20;;;;;;;;;;5058524;28;20195;-82
2022/04/01 13:06:29;;;;;;;4.27;3.87;;;;;;;;;;5052936;28;20195;-83
2022/04/01 13:09:43;;;;;;;4.10;3.70;;;;;;;;;;5063006;28;20183;-83
2022/04/01 13:12:48;;;;;;;4.27;3.80;;;;;;;;;;5060817;28;20192;-83
2022/04/01 13:15:52;;;;;;;4.57;3.83;;;;;;;;;;5061578;28;20690;-83
2022/04/01 13:19:17;;;;;;;3.47;2.93;;;;;;;;;;5058788;28;20167;-82
2022/04/01 13:22:22;;;;;;;4.47;4.00;;;;;;;;;;5047233;28;20184;-82
2022/04/01 13:25:27;;;;;;;3.17;2.87;;;;;;;;;;5047164;28;20223;-83
2022/04/01 13:28:31;;;;;;;2.73;2.40;;;;;;;;;;5058452;28;20180;-82
2022/04/01 13:31:35;;;;;;;2.87;2.57;;;;;;;;;;5058668;28;20179;-83
2022/04/01 13:34:40;;;;;;;2.30;2.10;;;;;;;;;;5058144;28;20207;-82
2022/04/01 13:37:45;;;;;;;2.47;2.20;;;;;;;;;;5057716;28;20219;-82
2022/04/01 13:40:49;;;;;;;3.40;3.10;;;;;;;;;;5058277;28;20180;-82
2022/04/01 13:43:53;;;;;;;4.60;4.20;;;;;;;;;;5069145;28;20199;-82
2022/04/01 13:46:58;;;;;;;4.63;3.70;;;;;;;;;;5046563;28;20191;-82
2022/04/01 13:50:03;;;;;;;2.57;1.80;;;;;;;;;;5044653;28;20547;-82
2022/04/01 13:53:11;;;;;;;1.63;1.53;;;;;;;;;;5033511;28;20185;-82
2022/04/01 13:56:15;;;;;;;1.77;1.60;;;;;;;;;;5033387;28;20686;-83
2022/04/01 13:59:19;;;;;;;2.00;1.80;;;;;;;;;;5032913;28;20188;-83
2022/04/01 14:02:23;;;;;;;2.30;1.93;;;;;;;;;;5055878;28;20200;-83
2022/04/01 14:05:28;;;;;;;2.10;1.90;;;;;;;;;;5033138;28;20602;-83
2022/04/01 14:08:32;;;;;;;2.47;1.77;;;;;;;;;;5033456;28;20192;-83
2022/04/01 14:11:36;;;;;;;1.60;1.50;;;;;;;;;;5032648;28;20562;-85
2022/04/01 14:14:40;;;;;;;1.67;1.57;;;;;;;;;;5033638;28;20220;-84
2022/04/01 14:17:44;;;;;;;1.90;1.77;;;;;;;;;;5056092;28;20204;-85
2022/04/01 14:20:49;;;;;;;2.07;1.87;;;;;;;;;;5044180;28;20574;-84
2022/04/01 14:23:53;;;;;;;2.03;1.80;;;;;;;;;;5043748;28;20199;-85
2022/04/01 14:26:58;;;;;;;3.00;1.73;;;;;;;;;;5033049;28;20188;-85
2022/04/01 14:30:18;;;;;;;30.70;20.87;;;;;;;;;;5044047;28;20646;-85
2022/04/01 14:33:22;;;;;;;8.17;7.37;;;;;;;;;;5044122;28;20184;-84
2022/04/01 14:36:26;;;;;;;5.27;4.77;;;;;;;;;;5043347;28;20211;-85
2022/04/01 14:39:30;;;;;;;2.67;2.47;;;;;;;;;;5032690;28;20188;-84
2022/04/01 14:42:35;;;;;;;5.23;4.83;;;;;;;;;;5049302;28;20176;-84
2022/04/01 14:45:39;;;;;;;2.23;2.00;;;;;;;;;;5042756;28;20204;-84
2022/04/01 14:48:43;;;;;;;2.07;1.97;;;;;;;;;;5035374;28;20172;-85
2022/04/01 14:51:48;;;;;;;2.20;2.00;;;;;;;;;;5057808;28;20176;-85
2022/04/01 14:54:53;;;;;;;3.00;2.60;;;;;;;;;;5035373;28;20220;-85
2022/04/01 14:57:57;;;;;;;2.23;2.00;;;;;;;;;;5034979;28;20200;-85
2022/04/01 15:01:01;;;;;;;2.17;1.97;;;;;;;;;;5033820;28;20184;-85
2022/04/01 15:04:05;;;;;;;2.10;1.90;;;;;;;;;;5058451;28;20187;-85
2022/04/01 15:07:09;;;;;;;3.60;2.70;;;;;;;;;;5034084;28;20176;-85
2022/04/01 15:10:15;;;;;;;3.87;2.73;;;;;;;;;;5045804;28;20188;-85
2022/04/01 15:13:19;;;;;;;4.53;2.00;;;;;;;;;;5034113;28;20181;-85
2022/04/01 15:16:23;;;;;;;2.30;2.07;;;;;;;;;;5045302;28;20172;-85
2022/04/01 15:19:27;;;;;;;2.13;1.77;;;;;;;;;;5045377;28;20168;-85
2022/04/01 15:22:31;;;;;;;2.30;2.10;;;;;;;;;;5056638;28;20184;-85
2022/04/01 15:25:35;;;;;;;2.43;1.70;;;;;;;;;;5044653;28;20220;-85
2022/04/01 15:28:39;;;;;;;1.73;1.63;;;;;;;;;;5032578;28;20176;-85
2022/04/01 15:31:43;;;;;;;3.00;2.40;;;;;;;;;;5055681;28;20663;-85
2022/04/01 15:34:48;;;;;;;2.30;2.10;;;;;;;;;;5043870;28;20219;-85
2022/04/01 15:37:56;;;;;;;2.70;2.10;;;;;;;;;;5032663;28;20216;-85
2022/04/01 15:41:04;;;;;;;4.40;2.40;;;;;;;;;;5044410;28;20199;-85
2022/04/01 15:44:13;;;;;;;3.00;2.63;;;;;;;;;;5032258;28;20180;-85
2022/04/01 15:47:20;;;;;;;2.50;2.30;;;;;;;;;;5043667;28;20623;-85
2022/04/01 15:50:25;;;;;;;3.27;2.57;;;;;;;;;;5043781;28;20184;-85
2022/04/01 15:53:30;;;;;;;3.63;3.13;;;;;;;;;;5043609;28;20176;-85
2022/04/01 15:56:36;;;;;;;3.40;3.10;;;;;;;;;;5032371;28;20176;-85
2022/04/01 15:59:40;;;;;;;3.73;2.10;;;;;;;;;;5032321;28;20635;-85
2022/04/01 16:03:06;;;;;;;2.30;2.10;;;;;;;;;;5031779;28;20184;-85
2022/04/01 16:06:11;;;;;;;5.20;3.57;;;;;;;;;;5043331;28;20220;-85
2022/04/01 16:09:19;;;;;;;5.17;3.90;;;;;;;;;;5033611;28;20669;-85
2022/04/01 16:12:24;;;;;;;3.47;3.13;;;;;;;;;;5031747;28;20180;-85
2022/04/01 16:15:30;;;;;;;9.93;6.10;;;;;;;;;;5042976;28;20220;-85
2022/04/01 16:18:36;;;;;;;4.43;3.53;;;;;;;;;;5031854;28;20566;-85
2022/04/01 16:21:41;;;;;;;3.93;3.03;;;;;;;;;;5042742;28;20180;-84
2022/04/01 16:24:46;;;;;;;6.57;5.23;;;;;;;;;;5042234;28;20614;-85
2022/04/01 16:27:50;;;;;;;7.83;6.50;;;;;;;;;;5054747;28;20910;-85
2022/04/01 16:30:55;;;;;;;8.47;6.60;;;;;;;;;;5042375;28;20535;-84
2022/04/01 16:33:59;;;;;;;9.40;7.60;;;;;;;;;;5031012;28;20539;-84
2022/04/01 16:37:03;;;;;;;9.53;8.37;;;;;;;;;;5030407;28;20609;-84
2022/04/01 16:40:08;;;;;;;8.80;7.90;;;;;;;;;;5041965;28;20551;-85
2022/04/01 16:43:12;;;;;;;11.37;8.63;;;;;;;;;;5030273;28;20547;-85
2022/04/01 16:46:16;;;;;;;10.77;9.10;;;;;;;;;;5030610;28;20535;-84
2022/04/01 16:49:21;;;;;;;9.70;8.30;;;;;;;;;;5030448;28;20536;-84
2022/04/01 16:52:24;;;;;;;10.93;8.53;;;;;;;;;;5030371;28;20543;-84
2022/04/01 16:55:29;;;;;;;8.00;5.10;;;;;;;;;;5041100;28;20618;-84
2022/04/01 16:58:33;;;;;;;5.60;2.53;;;;;;;;;;5030030;28;20204;-84
2022/04/01 17:01:38;;;;;;;3.40;3.10;;;;;;;;;;5030409;28;20547;-84
2022/04/01 17:04:42;;;;;;;4.57;2.30;;;;;;;;;;5029600;28;20618;-85
2022/04/01 17:14:34;;;;;;;7.77;6.40;;;;;;;;;;5040588;28;20642;-85
2022/04/01 17:17:39;;;;;;;11.73;8.73;;;;;;;;;;5040998;28;21132;-85
2022/04/01 17:20:44;;;;;;;14.37;11.20;;;;;;;;;;5040749;28;20551;-85
2022/04/01 17:23:49;;;;;;;15.27;12.10;;;;;;;;;;5042652;28;20535;-85
2022/04/01 17:26:53;;;;;;;15.87;10.67;;;;;;;;;;5033505;28;20883;-85
2022/04/01 17:29:57;;;;;;;13.93;11.10;;;;;;;;;;5033200;28;20590;-85
2022/04/01 17:33:04;;;;;;;13.50;10.43;;;;;;;;;;5044727;28;20539;-85
2022/04/01 17:36:08;;;;;;;13.57;10.90;;;;;;;;;;5044058;28;20626;-86
2022/04/01 17:39:13;;;;;;;12.87;10.73;;;;;;;;;;5046027;28;21128;-85
2022/04/01 17:42:19;;;;;;;13.87;11.47;;;;;;;;;;5044232;28;20602;-86
2022/04/01 17:45:26;;;;;;;15.87;12.00;;;;;;;;;;5056143;28;20622;-86
2022/04/01 17:48:33;;;;;;;14.53;11.60;;;;;;;;;;5033175;28;20535;-86
2022/04/01 17:51:37;;;;;;;14.60;11.77;;;;;;;;;;5044690;28;20547;-86
2022/04/01 17:54:42;;;;;;;16.67;12.77;;;;;;;;;;5055367;28;20629;-86
2022/04/01 17:57:47;;;;;;;16.07;12.33;;;;;;;;;;5046178;28;21148;-86
2022/04/01 18:00:52;;;;;;;16.43;13.20;;;;;;;;;;5045100;28;21078;-85
2022/04/01 18:03:58;;;;;;;19.00;14.13;;;;;;;;;;5044561;28;20594;-86
2022/04/01 18:07:02;;;;;;;17.70;13.30;;;;;;;;;;5032807;28;21101;-86
2022/04/01 18:10:08;;;;;;;16.20;13.37;;;;;;;;;;5045347;28;20539;-86
2022/04/01 18:13:16;;;;;;;16.83;12.97;;;;;;;;;;5043792;28;20555;-86
2022/04/01 18:16:20;;;;;;;18.27;14.23;;;;;;;;;;5032965;28;20871;-86
2022/04/01 18:19:29;;;;;;;17.67;13.87;;;;;;;;;;5044366;28;20594;-85
2022/04/01 18:22:33;;;;;;;17.43;13.87;;;;;;;;;;5032459;28;21176;-85
2022/04/01 18:25:41;;;;;;;19.47;15.07;;;;;;;;;;5043624;28;20618;-85
2022/04/01 18:29:03;;;;;;;19.40;14.47;;;;;;;;;;5055880;28;20551;-85
2022/04/01 18:32:16;;;;;;;21.33;16.37;;;;;;;;;;5044705;28;20543;-85
2022/04/01 18:35:36;;;;;;;30.07;21.60;;;;;;;;;;5032008;28;20618;-86
2022/04/01 18:38:41;;;;;;;19.77;15.20;;;;;;;;;;5043812;28;20610;-84
2022/04/01 18:41:46;;;;;;;19.03;14.27;;;;;;;;;;5033023;28;20551;-85
2022/04/01 18:44:50;;;;;;;21.73;16.00;;;;;;;;;;5043991;28;20622;-86
2022/04/01 18:48:00;;;;;;;22.07;15.57;;;;;;;;;;5032324;28;20551;-85
2022/04/01 18:51:04;;;;;;;18.93;14.73;;;;;;;;;;5055143;28;20590;-86
2022/04/01 18:54:08;;;;;;;20.90;15.87;;;;;;;;;;5043389;28;20594;-86